createdAt,value
2022-10-23T00:01:42.808Z,12.40
2022-10-23T00:04:14.989Z,12.40
2022-10-23T00:06:43.845Z,12.40
2022-10-23T00:09:16.891Z,12.30
2022-10-23T00:11:47.743Z,12.40
2022-10-23T00:14:18.181Z,12.40
2022-10-23T00:16:46.405Z,12.40
2022-10-23T00:19:14.534Z,12.30
2022-10-23T00:21:42.678Z,12.30
2022-10-23T00:24:11.150Z,12.30
2022-10-23T00:26:40.768Z,12.20
2022-10-23T00:29:11.417Z,12.30
2022-10-23T00:31:40.056Z,12.30
2022-10-23T00:34:09.159Z,12.20
2022-10-23T00:36:43.370Z,12.30
2022-10-23T00:39:11.424Z,12.20
2022-10-23T00:41:40.837Z,12.20
2022-10-23T00:44:31.365Z,12.10
2022-10-23T00:47:01.119Z,12.00
2022-10-23T00:49:30.915Z,12.00
2022-10-23T00:52:05.957Z,12.00
2022-10-23T00:54:39.181Z,12.10
2022-10-23T00:57:13.478Z,12.20
2022-10-23T00:59:42.160Z,12.20
2022-10-23T01:02:11.997Z,12.10
2022-10-23T01:04:41.034Z,12.20
2022-10-23T01:07:20.497Z,12.10
2022-10-23T01:10:00.321Z,12.00
2022-10-23T01:12:36.466Z,12.00
2022-10-23T01:15:16.028Z,12.00
2022-10-23T01:17:56.200Z,12.00
2022-10-23T01:20:41.386Z,12.00
2022-10-23T01:23:30.256Z,12.00
2022-10-23T01:26:45.271Z,12.00
2022-10-23T01:29:25.008Z,11.90
2022-10-23T01:32:02.813Z,12.00
2022-10-23T01:34:41.391Z,11.90
2022-10-23T01:37:16.682Z,11.70
2022-10-23T01:39:52.864Z,11.70
2022-10-23T01:42:28.231Z,11.60
2022-10-23T01:45:04.078Z,11.60
2022-10-23T01:47:43.050Z,11.50
2022-10-23T01:50:16.444Z,11.50
2022-10-23T01:52:47.637Z,11.50
2022-10-23T01:55:18.286Z,11.50
2022-10-23T01:57:48.143Z,11.50
2022-10-23T02:00:20.695Z,11.50
2022-10-23T02:02:56.019Z,11.50
2022-10-23T02:05:32.945Z,11.50
2022-10-23T02:08:03.566Z,11.50
2022-10-23T02:10:42.585Z,11.60
2022-10-23T02:13:17.461Z,11.60
2022-10-23T02:15:51.323Z,11.60
2022-10-23T02:18:35.751Z,11.70
2022-10-23T02:21:11.966Z,11.70
2022-10-23T02:23:52.558Z,11.70
2022-10-23T02:26:30.415Z,11.60
2022-10-23T02:29:08.518Z,11.60
2022-10-23T02:31:39.365Z,11.60
2022-10-23T02:34:07.593Z,11.70
2022-10-23T02:36:35.786Z,11.70
2022-10-23T02:39:06.034Z,11.60
2022-10-23T02:41:47.161Z,11.50
2022-10-23T02:44:43.051Z,11.60
2022-10-23T02:47:29.200Z,11.60
2022-10-23T02:50:11.580Z,11.50
2022-10-23T02:52:53.668Z,11.60
2022-10-23T02:55:38.916Z,11.70
2022-10-23T02:58:19.659Z,11.60
2022-10-23T03:00:57.881Z,11.60
2022-10-23T03:03:32.812Z,11.60
2022-10-23T03:06:01.148Z,11.50
2022-10-23T03:08:29.612Z,11.50
2022-10-23T03:10:57.811Z,11.50
2022-10-23T03:13:29.449Z,11.40
2022-10-23T03:15:57.472Z,11.40
2022-10-23T03:18:29.303Z,11.40
2022-10-23T03:21:00.266Z,11.40
2022-10-23T03:23:28.388Z,11.30
2022-10-23T03:25:56.599Z,11.40
2022-10-23T03:28:35.386Z,11.30
2022-10-23T03:31:03.802Z,11.30
2022-10-23T03:33:34.338Z,11.20
2022-10-23T03:36:13.297Z,11.20
2022-10-23T03:38:41.670Z,11.20
2022-10-23T03:41:12.083Z,11.20
2022-10-23T03:43:40.157Z,11.10
2022-10-23T03:46:12.378Z,11.10
2022-10-23T03:48:42.085Z,11.10
2022-10-23T03:51:10.216Z,11.10
2022-10-23T03:53:41.938Z,11.10
2022-10-23T03:56:09.999Z,11.00
2022-10-23T03:58:38.061Z,11.00
2022-10-23T04:01:06.333Z,11.00
2022-10-23T04:03:34.528Z,11.00
2022-10-23T04:06:03.982Z,11.00
2022-10-23T04:08:32.817Z,11.00
2022-10-23T04:11:01.321Z,10.90
2022-10-23T04:13:42.688Z,10.90
2022-10-23T04:16:10.901Z,10.90
2022-10-23T04:18:41.690Z,10.90
2022-10-23T04:21:12.869Z,10.90
2022-10-23T04:23:40.973Z,10.90
2022-10-23T04:26:14.470Z,10.90
2022-10-23T04:28:42.821Z,10.80
2022-10-23T04:31:11.534Z,10.80
2022-10-23T04:33:42.247Z,10.90
2022-10-23T04:36:11.786Z,10.90
2022-10-23T04:38:41.524Z,10.90
2022-10-23T04:41:09.705Z,10.90
2022-10-23T04:43:38.304Z,10.90
2022-10-23T04:46:07.702Z,11.00
2022-10-23T04:48:35.742Z,11.00
2022-10-23T04:51:29.798Z,10.90
2022-10-23T04:54:03.619Z,10.90
2022-10-23T04:56:43.493Z,10.90
2022-10-23T04:59:20.379Z,10.90
2022-10-23T05:01:48.906Z,10.90
2022-10-23T05:04:17.470Z,10.90
2022-10-23T05:07:10.083Z,10.90
2022-10-23T05:10:00.323Z,10.90
2022-10-23T05:12:37.137Z,10.90
2022-10-23T05:15:06.779Z,11.00
2022-10-23T05:17:40.381Z,11.00
2022-10-23T05:20:15.327Z,11.10
2022-10-23T05:22:47.383Z,11.10
2022-10-23T05:25:15.715Z,11.10
2022-10-23T05:27:49.444Z,11.10
2022-10-23T05:30:18.456Z,11.10
2022-10-23T05:32:46.924Z,11.20
2022-10-23T05:35:20.577Z,11.20
2022-10-23T05:37:54.720Z,11.20
2022-10-23T05:40:25.619Z,11.20
2022-10-23T05:43:05.594Z,11.20
2022-10-23T05:45:51.810Z,11.20
2022-10-23T05:48:42.663Z,11.30
2022-10-23T05:51:29.436Z,11.20
2022-10-23T05:54:18.228Z,11.30
2022-10-23T05:56:57.772Z,11.20
2022-10-23T05:59:45.107Z,11.20
2022-10-23T06:02:22.460Z,11.20
2022-10-23T06:04:56.809Z,11.30
2022-10-23T06:07:48.359Z,11.30
2022-10-23T06:10:17.996Z,11.30
2022-10-23T06:12:48.481Z,11.30
2022-10-23T06:15:19.083Z,11.40
2022-10-23T06:18:12.848Z,11.40
2022-10-23T06:20:52.855Z,11.50
2022-10-23T06:23:27.048Z,11.50
2022-10-23T06:26:20.763Z,11.50
2022-10-23T06:29:21.290Z,11.60
2022-10-23T06:31:51.505Z,11.60
2022-10-23T06:34:19.564Z,11.70
2022-10-23T06:36:48.469Z,11.70
2022-10-23T06:39:45.511Z,11.80
2022-10-23T06:42:17.442Z,11.80
2022-10-23T06:44:57.952Z,11.80
2022-10-23T06:47:45.047Z,11.90
2022-10-23T06:50:32.224Z,11.90
2022-10-23T06:53:06.390Z,11.90
2022-10-23T06:55:39.897Z,11.90
2022-10-23T06:58:11.341Z,11.90
2022-10-23T07:00:54.755Z,12.00
2022-10-23T07:03:23.466Z,12.00
2022-10-23T07:05:51.510Z,12.10
2022-10-23T07:08:23.800Z,12.10
2022-10-23T07:10:54.205Z,12.10
2022-10-23T07:13:24.971Z,12.20
2022-10-23T07:15:59.380Z,12.20
2022-10-23T07:18:29.440Z,12.20
2022-10-23T07:21:20.378Z,12.30
2022-10-23T07:23:50.902Z,12.30
2022-10-23T07:26:20.326Z,12.40
2022-10-23T07:28:55.019Z,12.40
2022-10-23T07:31:28.158Z,12.50
2022-10-23T07:34:14.901Z,12.50
2022-10-23T07:36:44.600Z,12.60
2022-10-23T07:39:14.403Z,12.60
2022-10-23T07:41:49.333Z,12.70
2022-10-23T07:44:24.311Z,12.70
2022-10-23T07:46:57.210Z,12.80
2022-10-23T07:49:25.340Z,12.90
2022-10-23T07:51:54.129Z,12.90
2022-10-23T07:54:22.233Z,12.90
2022-10-23T07:57:02.839Z,13.00
2022-10-23T07:59:49.040Z,13.00
2022-10-23T08:02:22.018Z,13.10
2022-10-23T08:04:52.024Z,13.20
2022-10-23T08:07:35.863Z,13.20
2022-10-23T08:10:04.705Z,13.30
2022-10-23T08:12:34.051Z,13.30
2022-10-23T08:15:04.529Z,13.30
2022-10-23T08:17:42.627Z,13.40
2022-10-23T08:20:16.266Z,13.40
2022-10-23T08:22:46.174Z,13.40
2022-10-23T08:25:25.034Z,13.50
2022-10-23T08:27:54.195Z,13.50
2022-10-23T08:30:24.100Z,13.50
2022-10-23T08:32:52.673Z,13.50
2022-10-23T08:35:20.802Z,13.60
2022-10-23T08:37:48.871Z,13.70
2022-10-23T08:40:18.884Z,13.80
2022-10-23T08:43:20.123Z,13.80
2022-10-23T08:46:09.456Z,13.90
2022-10-23T08:49:09.099Z,14.00
2022-10-23T08:51:51.245Z,14.00
2022-10-23T08:54:26.416Z,14.10
2022-10-23T08:57:01.851Z,14.20
2022-10-23T08:59:40.015Z,14.20
2022-10-23T09:02:19.441Z,14.30
2022-10-23T09:04:51.921Z,14.30
2022-10-23T09:07:33.977Z,14.30
2022-10-23T09:10:31.148Z,14.30
2022-10-23T09:13:13.867Z,14.30
2022-10-23T09:15:48.704Z,14.30
2022-10-23T09:18:18.538Z,14.40
2022-10-23T09:20:48.286Z,14.40
2022-10-23T09:23:20.128Z,14.50
2022-10-23T09:25:55.363Z,14.50
2022-10-23T09:28:28.489Z,14.60
2022-10-23T09:31:08.286Z,14.60
2022-10-23T09:33:38.071Z,14.60
2022-10-23T09:36:11.046Z,14.60
2022-10-23T09:38:51.200Z,14.70
2022-10-23T09:41:23.513Z,14.80
2022-10-23T09:44:03.228Z,14.80
2022-10-23T09:46:43.034Z,14.80
2022-10-23T09:49:20.025Z,14.90
2022-10-23T09:52:01.880Z,14.90
2022-10-23T09:54:33.814Z,15.00
2022-10-23T09:57:16.689Z,15.10
2022-10-23T09:59:45.007Z,15.10
2022-10-23T10:02:28.814Z,15.20
2022-10-23T10:05:28.299Z,15.20
2022-10-23T10:08:06.696Z,15.30
2022-10-23T10:10:44.386Z,15.20
2022-10-23T10:13:46.108Z,15.20
2022-10-23T10:16:26.879Z,15.30
2022-10-23T10:19:04.590Z,15.30
2022-10-23T10:21:44.827Z,15.50
2022-10-23T10:24:23.665Z,15.60
2022-10-23T10:27:03.848Z,15.70
2022-10-23T10:29:59.592Z,15.80
2022-10-23T10:32:41.097Z,15.90
2022-10-23T10:35:26.511Z,16.00
2022-10-23T10:38:36.467Z,16.00
2022-10-23T10:41:27.660Z,16.10
2022-10-23T10:44:17.128Z,16.20
2022-10-23T10:46:55.955Z,16.20
2022-10-23T10:49:36.687Z,16.20
2022-10-23T10:52:38.887Z,16.30
2022-10-23T10:55:20.691Z,16.50
2022-10-23T10:57:59.251Z,16.60
2022-10-23T11:00:32.019Z,16.70
2022-10-23T11:03:10.352Z,16.80
2022-10-23T11:05:44.252Z,17.00
2022-10-23T11:08:20.576Z,17.10
2022-10-23T11:10:55.990Z,17.30
2022-10-23T11:13:31.319Z,17.40
2022-10-23T11:16:05.520Z,17.60
2022-10-23T11:18:35.919Z,17.70
2022-10-23T11:21:30.152Z,17.80
2022-10-23T11:24:50.699Z,17.90
2022-10-23T11:27:42.373Z,17.90
2022-10-23T11:30:24.943Z,18.10
2022-10-23T11:33:31.887Z,18.20
2022-10-23T11:36:14.115Z,18.40
2022-10-23T11:38:47.262Z,18.50
2022-10-23T11:41:25.674Z,18.60
2022-10-23T11:44:01.630Z,18.50
2022-10-23T11:46:36.331Z,18.60
2022-10-23T11:49:06.716Z,18.60
2022-10-23T11:51:37.035Z,18.70
2022-10-23T11:54:27.149Z,18.80
2022-10-23T11:57:10.808Z,18.90
2022-10-23T11:59:54.550Z,19.00
2022-10-23T12:02:32.803Z,19.00
2022-10-23T12:05:07.127Z,18.80
2022-10-23T12:07:38.609Z,18.80
2022-10-23T12:10:20.359Z,18.90
2022-10-23T12:12:58.845Z,18.90
2022-10-23T12:15:31.581Z,18.90
2022-10-23T12:18:15.956Z,18.90
2022-10-23T12:20:52.655Z,18.90
2022-10-23T12:23:50.706Z,18.80
2022-10-23T12:26:34.178Z,18.70
2022-10-23T12:29:17.385Z,18.60
2022-10-23T12:31:58.058Z,18.70
2022-10-23T12:34:44.565Z,18.80
2022-10-23T12:37:37.746Z,19.10
2022-10-23T12:40:10.416Z,19.10
2022-10-23T12:42:39.372Z,19.10
2022-10-23T12:45:19.598Z,19.00
2022-10-23T12:47:51.355Z,19.10
2022-10-23T12:50:23.714Z,19.20
2022-10-23T12:52:58.556Z,19.40
2022-10-23T12:55:33.606Z,19.40
2022-10-23T12:58:03.929Z,19.60
2022-10-23T13:00:32.122Z,19.50
2022-10-23T13:03:04.781Z,19.60
2022-10-23T13:05:34.097Z,19.60
2022-10-23T13:08:04.019Z,19.70
2022-10-23T13:10:44.527Z,19.50
2022-10-23T13:13:14.998Z,19.40
2022-10-23T13:15:45.702Z,19.40
2022-10-23T13:18:17.096Z,19.50
2022-10-23T13:20:58.361Z,19.40
2022-10-23T13:23:32.213Z,19.20
2022-10-23T13:26:03.109Z,19.00
2022-10-23T13:28:42.930Z,19.00
2022-10-23T13:31:30.156Z,18.90
2022-10-23T13:34:27.039Z,18.70
2022-10-23T13:37:00.860Z,18.60
2022-10-23T13:39:32.342Z,18.50
2022-10-23T13:42:15.451Z,18.40
2022-10-23T13:44:44.067Z,18.40
2022-10-23T13:47:14.457Z,18.30
2022-10-23T13:49:43.950Z,18.30
2022-10-23T13:52:15.203Z,18.40
2022-10-23T13:54:43.567Z,18.30
2022-10-23T13:57:15.596Z,18.30
2022-10-23T13:59:43.894Z,18.20
2022-10-23T14:02:22.123Z,18.20
2022-10-23T14:04:53.285Z,18.20
2022-10-23T14:07:21.362Z,18.10
2022-10-23T14:09:50.629Z,18.00
2022-10-23T14:12:19.188Z,18.00
2022-10-23T14:14:52.199Z,17.90
2022-10-23T14:17:21.279Z,17.90
2022-10-23T14:19:51.072Z,17.90
2022-10-23T14:22:19.172Z,17.80
2022-10-23T14:24:47.213Z,17.70
2022-10-23T14:27:15.323Z,17.80
2022-10-23T14:29:43.377Z,17.80
2022-10-23T14:32:11.826Z,17.70
2022-10-23T14:34:45.817Z,17.70
2022-10-23T14:37:15.225Z,17.70
2022-10-23T14:39:47.465Z,17.60
2022-10-23T14:42:17.860Z,17.60
2022-10-23T14:44:45.977Z,17.60
2022-10-23T14:47:14.204Z,17.50
2022-10-23T14:49:42.891Z,17.50
2022-10-23T14:52:11.003Z,17.40
2022-10-23T14:54:40.551Z,17.40
2022-10-23T14:57:08.978Z,17.40
2022-10-23T14:59:37.168Z,17.40
2022-10-23T15:02:05.278Z,17.40
2022-10-23T15:04:33.394Z,17.30
2022-10-23T15:07:01.452Z,17.30
2022-10-23T15:09:29.891Z,17.30
2022-10-23T15:11:59.249Z,17.30
2022-10-23T15:14:27.256Z,17.20
2022-10-23T15:16:55.290Z,17.20
2022-10-23T15:19:23.674Z,17.10
2022-10-23T15:21:52.439Z,17.10
2022-10-23T15:24:21.650Z,17.10
2022-10-23T15:26:50.185Z,17.10
2022-10-23T15:29:20.742Z,17.00
2022-10-23T15:31:54.424Z,17.00
2022-10-23T15:34:24.730Z,16.90
2022-10-23T15:36:54.019Z,16.90
2022-10-23T15:39:24.711Z,16.90
2022-10-23T15:41:56.808Z,16.90
2022-10-23T15:44:29.737Z,16.80
2022-10-23T15:46:58.372Z,16.80
2022-10-23T15:49:29.265Z,16.80
2022-10-23T15:51:57.850Z,16.80
2022-10-23T15:54:29.234Z,16.80
2022-10-23T15:57:00.108Z,16.80
2022-10-23T15:59:31.882Z,16.80
2022-10-23T16:02:00.311Z,16.80
2022-10-23T16:04:29.377Z,16.70
2022-10-23T16:06:57.505Z,16.70
2022-10-23T16:09:25.600Z,16.70
2022-10-23T16:11:53.648Z,16.60
2022-10-23T16:14:21.709Z,16.60
2022-10-23T16:16:51.065Z,16.60
2022-10-23T16:19:19.321Z,16.50
2022-10-23T16:21:47.399Z,16.60
2022-10-23T16:24:15.405Z,16.50
2022-10-23T16:26:45.460Z,16.50
2022-10-23T16:29:13.576Z,16.40
2022-10-23T16:31:41.624Z,16.40
2022-10-23T16:34:12.361Z,16.30
2022-10-23T16:36:40.447Z,16.20
2022-10-23T16:39:21.184Z,16.20
2022-10-23T16:42:08.022Z,16.20
2022-10-23T16:45:00.300Z,16.20
2022-10-23T16:47:31.024Z,16.10
2022-10-23T16:50:00.673Z,16.10
2022-10-23T16:52:29.423Z,16.10
2022-10-23T16:54:57.476Z,16.10
2022-10-23T16:57:27.264Z,16.10
2022-10-23T16:59:55.624Z,16.10
2022-10-23T17:02:23.728Z,16.10
2022-10-23T17:04:51.850Z,16.10
2022-10-23T17:07:23.519Z,16.10
2022-10-23T17:09:51.712Z,16.10
2022-10-23T17:12:19.778Z,16.10
2022-10-23T17:14:47.821Z,16.20
2022-10-23T17:17:15.920Z,16.20
2022-10-23T17:19:45.597Z,16.20
2022-10-23T17:22:15.494Z,16.20
2022-10-23T17:24:48.699Z,16.20
2022-10-23T17:27:19.698Z,16.20
2022-10-23T17:29:47.990Z,16.20
2022-10-23T17:32:16.040Z,16.20
2022-10-23T17:34:44.145Z,16.20
2022-10-23T17:37:13.220Z,16.10
2022-10-23T17:39:43.969Z,16.10
2022-10-23T17:42:13.343Z,16.10
2022-10-23T17:44:41.376Z,16.10
2022-10-23T17:47:09.405Z,16.00
2022-10-23T17:49:38.726Z,16.00
2022-10-23T17:52:10.257Z,16.00
2022-10-23T17:54:38.279Z,16.00
2022-10-23T17:57:07.744Z,15.90
2022-10-23T17:59:35.822Z,15.90
2022-10-23T18:02:03.986Z,15.90
2022-10-23T18:04:32.148Z,15.90
2022-10-23T18:07:00.194Z,15.90
2022-10-23T18:09:28.368Z,15.80
2022-10-23T18:11:56.457Z,15.80
2022-10-23T18:14:28.520Z,15.80
2022-10-23T18:16:57.724Z,15.80
2022-10-23T18:19:25.918Z,15.80
2022-10-23T18:21:54.313Z,15.80
2022-10-23T18:24:22.784Z,15.80
2022-10-23T18:26:50.855Z,15.80
2022-10-23T18:29:20.656Z,15.70
2022-10-23T18:31:50.607Z,15.70
2022-10-23T18:34:21.579Z,15.70
2022-10-23T18:36:51.642Z,15.70
2022-10-23T18:39:23.295Z,15.70
2022-10-23T18:41:55.889Z,15.70
2022-10-23T18:44:27.036Z,15.70
2022-10-23T18:46:57.752Z,15.70
2022-10-23T18:49:26.590Z,15.70
2022-10-23T18:51:55.118Z,15.70
2022-10-23T18:54:23.599Z,15.70
2022-10-23T18:56:52.486Z,15.70
2022-10-23T18:59:23.035Z,15.70
2022-10-23T19:01:51.694Z,15.80
2022-10-23T19:04:21.138Z,15.70
2022-10-23T19:06:50.873Z,15.70
2022-10-23T19:09:19.767Z,15.70
2022-10-23T19:11:47.911Z,15.70
2022-10-23T19:14:16.031Z,15.60
2022-10-23T19:16:56.048Z,15.60
2022-10-23T19:19:29.373Z,15.60
2022-10-23T19:21:57.887Z,15.50
2022-10-23T19:24:32.160Z,15.50
2022-10-23T19:27:02.841Z,15.50
2022-10-23T19:29:32.172Z,15.50
2022-10-23T19:32:01.751Z,15.50
2022-10-23T19:34:31.136Z,15.60
2022-10-23T19:36:59.798Z,15.60
2022-10-23T19:39:28.341Z,15.60
2022-10-23T19:41:58.446Z,15.60
2022-10-23T19:44:27.431Z,15.60
2022-10-23T19:46:55.778Z,15.60
2022-10-23T19:49:24.979Z,15.50
2022-10-23T19:51:54.356Z,15.50
2022-10-23T19:54:25.227Z,15.50
2022-10-23T19:56:53.351Z,15.50
2022-10-23T19:59:21.439Z,15.40
2022-10-23T20:01:49.638Z,15.40
2022-10-23T20:04:18.749Z,15.40
2022-10-23T20:06:48.137Z,15.40
2022-10-23T20:09:17.642Z,15.40
2022-10-23T20:11:45.698Z,15.40
2022-10-23T20:14:14.201Z,15.30
2022-10-23T20:16:45.721Z,15.30
2022-10-23T20:21:51.168Z,15.30
2022-10-23T20:24:22.041Z,15.30
2022-10-23T20:26:52.718Z,15.30
2022-10-23T20:29:21.838Z,15.30
2022-10-23T20:31:50.172Z,15.30
2022-10-23T20:34:18.981Z,15.30
2022-10-23T20:36:50.109Z,15.40
2022-10-23T20:39:25.345Z,15.40
2022-10-23T20:41:55.484Z,15.40
2022-10-23T20:44:25.035Z,15.40
2022-10-23T20:46:54.247Z,15.40
2022-10-23T20:49:23.685Z,15.40
2022-10-23T20:51:55.176Z,15.30
2022-10-23T20:54:27.752Z,15.30
2022-10-23T20:56:57.411Z,15.20
2022-10-23T20:59:26.144Z,15.20
2022-10-23T21:01:57.230Z,15.20
2022-10-23T21:04:28.656Z,15.20
2022-10-23T21:07:15.601Z,15.20
2022-10-23T21:09:55.195Z,15.10
2022-10-23T21:12:23.272Z,15.10
2022-10-23T21:14:51.347Z,15.10
2022-10-23T21:17:21.242Z,15.10
2022-10-23T21:19:49.365Z,15.10
2022-10-23T21:22:17.468Z,15.00
2022-10-23T21:24:45.543Z,14.90
2022-10-23T21:27:16.009Z,14.90
2022-10-23T21:29:44.790Z,14.90
2022-10-23T21:32:12.818Z,14.90
2022-10-23T21:34:40.835Z,14.90
2022-10-23T21:37:13.800Z,14.90
2022-10-23T21:39:42.893Z,14.90
2022-10-23T21:42:11.213Z,14.80
2022-10-23T21:44:40.941Z,14.80
2022-10-23T21:47:09.036Z,14.80
2022-10-23T21:49:37.079Z,14.80
2022-10-23T21:52:05.438Z,14.70
2022-10-23T21:54:33.821Z,14.70
2022-10-23T21:57:03.116Z,14.60
2022-10-23T21:59:33.115Z,14.50
2022-10-23T22:02:05.448Z,14.50
2022-10-23T22:04:33.763Z,14.50
2022-10-23T22:07:02.814Z,14.50
2022-10-23T22:09:31.742Z,14.50
2022-10-23T22:12:02.112Z,14.50
2022-10-23T22:14:30.552Z,14.50
2022-10-23T22:16:58.857Z,14.50
2022-10-23T22:19:28.417Z,14.50
2022-10-23T22:21:56.777Z,14.50
2022-10-23T22:24:25.231Z,14.50
2022-10-23T22:26:56.798Z,14.50
2022-10-23T22:29:28.506Z,14.50
2022-10-23T22:31:57.426Z,14.50
2022-10-23T22:37:18.112Z,14.60
2022-10-23T22:39:46.157Z,14.60
2022-10-23T22:42:14.310Z,14.70
2022-10-23T22:44:42.373Z,14.80
2022-10-23T22:47:10.416Z,14.90
2022-10-23T22:49:41.661Z,15.00
2022-10-23T22:52:09.652Z,15.10
2022-10-23T22:54:37.713Z,15.20
2022-10-23T22:57:05.763Z,15.30
2022-10-23T22:59:33.801Z,15.30
2022-10-23T23:02:01.851Z,15.40
2022-10-23T23:04:38.627Z,15.50
2022-10-23T23:07:10.145Z,15.50
2022-10-23T23:09:40.669Z,15.60
2022-10-23T23:12:11.022Z,15.50
2022-10-23T23:14:39.871Z,15.60
2022-10-23T23:17:09.754Z,15.60
2022-10-23T23:19:38.429Z,15.60
2022-10-23T23:22:08.001Z,15.60
2022-10-23T23:24:36.140Z,15.60
2022-10-23T23:27:04.258Z,15.60
2022-10-23T23:29:32.296Z,15.60
2022-10-23T23:32:01.750Z,15.60
2022-10-23T23:34:30.246Z,15.60
2022-10-23T23:36:58.358Z,15.60
2022-10-23T23:39:28.770Z,15.60
2022-10-23T23:41:56.921Z,15.60
2022-10-23T23:44:25.034Z,15.70
2022-10-23T23:46:53.104Z,15.80
2022-10-23T23:49:21.115Z,15.90
2022-10-23T23:51:49.239Z,15.90
2022-10-23T23:54:17.652Z,16.00
2022-10-23T23:56:47.119Z,16.10
2022-10-23T23:59:15.154Z,16.10
